createdAt,value
2023-02-13T00:00:50.014Z,0.00
2023-02-13T00:01:49.982Z,0.00
2023-02-13T00:02:49.987Z,0.00
2023-02-13T00:03:50.005Z,0.00
2023-02-13T00:04:49.957Z,0.00
2023-02-13T00:05:49.935Z,0.00
2023-02-13T00:06:49.925Z,0.00
2023-02-13T00:07:49.919Z,0.00
2023-02-13T00:08:49.953Z,0.00
2023-02-13T00:09:49.899Z,0.00
2023-02-13T00:10:49.906Z,0.00
2023-02-13T00:11:49.888Z,0.00
2023-02-13T00:12:49.864Z,0.00
2023-02-13T00:13:49.851Z,0.00
2023-02-13T00:14:49.859Z,0.00
2023-02-13T00:15:49.844Z,0.00
2023-02-13T00:16:49.830Z,0.00
2023-02-13T00:17:49.881Z,0.00
2023-02-13T00:18:50.583Z,0.00
2023-02-13T00:19:49.791Z,0.00
2023-02-13T00:20:49.790Z,0.00
2023-02-13T00:21:49.786Z,0.00
2023-02-13T00:22:49.758Z,0.00
2023-02-13T00:23:49.746Z,0.00
2023-02-13T00:24:49.743Z,0.00
2023-02-13T00:25:49.733Z,0.00
2023-02-13T00:26:49.724Z,0.00
2023-02-13T00:27:49.711Z,0.00
2023-02-13T00:28:49.700Z,0.00
2023-02-13T00:29:49.679Z,0.00
2023-02-13T00:30:49.815Z,0.00
2023-02-13T00:31:49.868Z,0.00
2023-02-13T00:32:49.658Z,0.00
2023-02-13T00:33:49.647Z,0.00
2023-02-13T00:34:49.631Z,0.00
2023-02-13T00:35:49.623Z,0.00
2023-02-13T00:36:49.629Z,0.00
2023-02-13T00:37:49.596Z,0.00
2023-02-13T00:38:49.608Z,0.00
2023-02-13T00:39:49.567Z,0.00
2023-02-13T00:40:49.564Z,0.00
2023-02-13T00:41:49.566Z,0.00
2023-02-13T00:42:49.544Z,0.00
2023-02-13T00:43:49.541Z,0.00
2023-02-13T00:44:49.535Z,0.00
2023-02-13T00:45:49.511Z,0.00
2023-02-13T00:46:49.530Z,0.00
2023-02-13T00:47:49.481Z,0.00
2023-02-13T00:48:49.488Z,0.00
2023-02-13T00:49:49.481Z,0.00
2023-02-13T00:50:49.451Z,0.00
2023-02-13T00:51:49.462Z,0.00
2023-02-13T00:52:49.443Z,0.00
2023-02-13T00:53:49.439Z,0.00
2023-02-13T00:54:49.443Z,0.00
2023-02-13T00:55:49.404Z,0.00
2023-02-13T00:56:49.405Z,0.00
2023-02-13T00:57:49.375Z,0.00
2023-02-13T00:58:49.370Z,0.00
2023-02-13T00:59:50.993Z,0.00
2023-02-13T01:00:49.349Z,0.00
2023-02-13T01:01:49.398Z,0.00
2023-02-13T01:02:49.326Z,0.00
2023-02-13T01:03:49.410Z,0.00
2023-02-13T01:04:49.351Z,0.00
2023-02-13T01:05:49.298Z,0.00
2023-02-13T01:06:49.298Z,0.00
2023-02-13T01:07:55.801Z,0.00
2023-02-13T01:08:49.266Z,0.00
2023-02-13T01:09:49.258Z,0.00
2023-02-13T01:10:49.256Z,0.00
2023-02-13T01:11:49.228Z,0.00
2023-02-13T01:12:49.223Z,0.00
2023-02-13T01:13:49.212Z,0.00
2023-02-13T01:14:49.214Z,0.00
2023-02-13T01:15:49.242Z,0.00
2023-02-13T01:16:49.202Z,0.00
2023-02-13T01:17:49.164Z,0.00
2023-02-13T01:18:49.167Z,0.00
2023-02-13T01:19:49.159Z,0.00
2023-02-13T01:20:49.139Z,0.00
2023-02-13T01:21:49.145Z,0.00
2023-02-13T01:22:49.123Z,0.00
2023-02-13T01:23:49.119Z,0.00
2023-02-13T01:24:49.104Z,0.00
2023-02-13T01:25:49.082Z,0.00
2023-02-13T01:26:49.094Z,0.00
2023-02-13T01:27:49.067Z,0.00
2023-02-13T01:28:49.060Z,0.00
2023-02-13T01:29:49.054Z,0.00
2023-02-13T01:30:49.049Z,0.00
2023-02-13T01:31:49.179Z,0.00
2023-02-13T01:32:49.048Z,0.00
2023-02-13T01:33:49.029Z,0.00
2023-02-13T01:34:49.006Z,0.00
2023-02-13T01:35:48.985Z,0.00
2023-02-13T01:36:48.999Z,0.00
2023-02-13T01:37:48.955Z,0.00
2023-02-13T01:38:48.953Z,0.00
2023-02-13T01:39:48.932Z,0.00
2023-02-13T01:40:48.932Z,0.00
2023-02-13T01:41:48.918Z,0.00
2023-02-13T01:42:48.906Z,0.00
2023-02-13T01:43:48.900Z,0.00
2023-02-13T01:44:48.896Z,0.00
2023-02-13T01:45:48.869Z,0.00
2023-02-13T01:46:48.946Z,0.00
2023-02-13T01:47:48.852Z,0.00
2023-02-13T01:48:48.840Z,0.00
2023-02-13T01:49:48.825Z,0.00
2023-02-13T01:50:48.829Z,0.00
2023-02-13T01:51:48.804Z,0.00
2023-02-13T01:52:48.796Z,0.00
2023-02-13T01:53:48.781Z,0.00
2023-02-13T01:54:48.782Z,0.00
2023-02-13T01:55:48.767Z,0.00
2023-02-13T01:56:48.771Z,0.00
2023-02-13T01:57:48.736Z,0.00
2023-02-13T01:58:48.735Z,0.00
2023-02-13T01:59:48.739Z,0.00
2023-02-13T02:00:48.712Z,0.00
2023-02-13T02:01:48.841Z,0.00
2023-02-13T02:02:48.781Z,0.00
2023-02-13T02:03:48.675Z,0.00
2023-02-13T02:04:48.689Z,0.00
2023-02-13T02:05:48.688Z,0.00
2023-02-13T02:06:48.650Z,0.00
2023-02-13T02:07:48.682Z,0.00
2023-02-13T02:08:48.621Z,0.00
2023-02-13T02:09:48.612Z,0.00
2023-02-13T02:10:48.611Z,0.00
2023-02-13T02:11:48.590Z,0.00
2023-02-13T02:12:48.596Z,0.00
2023-02-13T02:13:48.589Z,0.00
2023-02-13T02:14:48.563Z,0.00
2023-02-13T02:15:48.588Z,0.00
2023-02-13T02:16:48.573Z,0.00
2023-02-13T02:17:48.529Z,0.00
2023-02-13T02:18:48.539Z,0.00
2023-02-13T02:19:48.507Z,0.00
2023-02-13T02:20:48.501Z,0.00
2023-02-13T02:21:48.494Z,0.00
2023-02-13T02:22:48.478Z,0.00
2023-02-13T02:23:48.465Z,0.00
2023-02-13T02:24:48.477Z,0.00
2023-02-13T02:25:48.449Z,0.00
2023-02-13T02:26:48.436Z,0.00
2023-02-13T02:27:48.463Z,0.00
2023-02-13T02:28:48.507Z,0.00
2023-02-13T02:29:48.414Z,0.00
2023-02-13T02:30:48.422Z,0.00
2023-02-13T02:31:48.428Z,0.00
2023-02-13T02:32:48.372Z,0.00
2023-02-13T02:33:48.363Z,0.00
2023-02-13T02:34:48.372Z,0.00
2023-02-13T02:35:48.346Z,0.00
2023-02-13T02:36:48.388Z,0.00
2023-02-13T02:37:48.339Z,0.00
2023-02-13T02:38:48.316Z,0.00
2023-02-13T02:39:48.315Z,0.00
2023-02-13T02:40:48.294Z,0.00
2023-02-13T02:41:48.310Z,0.00
2023-02-13T02:42:48.274Z,0.00
2023-02-13T02:43:48.288Z,0.00
2023-02-13T02:44:48.260Z,0.00
2023-02-13T02:45:48.292Z,0.00
2023-02-13T02:46:48.288Z,0.00
2023-02-13T02:47:48.215Z,0.00
2023-02-13T02:48:48.208Z,0.00
2023-02-13T02:49:48.199Z,0.00
2023-02-13T02:50:48.204Z,0.00
2023-02-13T02:51:48.195Z,0.00
2023-02-13T02:52:48.167Z,0.00
2023-02-13T02:53:48.195Z,0.00
2023-02-13T02:54:48.165Z,0.00
2023-02-13T02:55:48.175Z,0.00
2023-02-13T02:56:48.118Z,0.00
2023-02-13T02:57:48.115Z,0.00
2023-02-13T02:58:48.112Z,0.00
2023-02-13T02:59:48.077Z,0.00
2023-02-13T03:00:48.134Z,0.00
2023-02-13T03:01:48.059Z,0.00
2023-02-13T03:02:48.066Z,0.00
2023-02-13T03:03:48.109Z,0.00
2023-02-13T03:04:48.045Z,0.00
2023-02-13T03:05:48.030Z,0.00
2023-02-13T03:06:48.007Z,0.00
2023-02-13T03:07:48.018Z,0.00
2023-02-13T03:08:47.984Z,0.00
2023-02-13T03:09:47.973Z,0.00
2023-02-13T03:10:47.978Z,0.00
2023-02-13T03:11:47.963Z,0.00
2023-02-13T03:12:47.939Z,0.00
2023-02-13T03:13:47.947Z,0.00
2023-02-13T03:14:47.916Z,0.00
2023-02-13T03:15:47.915Z,0.00
2023-02-13T03:16:47.896Z,0.00
2023-02-13T03:17:47.898Z,0.00
2023-02-13T03:18:47.881Z,0.00
2023-02-13T03:19:47.870Z,0.00
2023-02-13T03:20:47.861Z,0.00
2023-02-13T03:21:47.862Z,0.00
2023-02-13T03:22:47.835Z,0.00
2023-02-13T03:23:47.839Z,0.00
2023-02-13T03:24:47.825Z,0.00
2023-02-13T03:25:47.801Z,0.00
2023-02-13T03:26:47.810Z,0.00
2023-02-13T03:27:47.789Z,0.00
2023-02-13T03:28:47.771Z,0.00
2023-02-13T03:29:47.780Z,0.00
2023-02-13T03:30:47.763Z,0.00
2023-02-13T03:31:47.821Z,0.00
2023-02-13T03:32:47.730Z,0.00
2023-02-13T03:33:47.719Z,0.00
2023-02-13T03:34:47.714Z,0.00
2023-02-13T03:35:47.741Z,0.00
2023-02-13T03:36:47.699Z,0.00
2023-02-13T03:37:47.682Z,0.00
2023-02-13T03:38:47.670Z,0.00
2023-02-13T03:39:47.664Z,0.00
2023-02-13T03:40:47.646Z,0.00
2023-02-13T03:41:47.631Z,0.00
2023-02-13T03:42:47.626Z,0.00
2023-02-13T03:43:47.610Z,0.00
2023-02-13T03:44:47.617Z,0.00
2023-02-13T03:45:47.706Z,0.00
2023-02-13T03:46:47.582Z,0.00
2023-02-13T03:47:47.572Z,0.00
2023-02-13T03:48:47.568Z,0.00
2023-02-13T03:49:47.551Z,0.00
2023-02-13T03:50:47.548Z,0.00
2023-02-13T03:51:47.526Z,0.00
2023-02-13T03:52:47.524Z,0.00
2023-02-13T03:53:47.505Z,0.00
2023-02-13T03:54:47.491Z,0.00
2023-02-13T03:55:47.486Z,0.00
2023-02-13T03:56:47.483Z,0.00
2023-02-13T03:57:47.475Z,0.00
2023-02-13T03:58:47.463Z,0.00
2023-02-13T03:59:47.441Z,0.00
2023-02-13T04:00:47.466Z,0.00
2023-02-13T04:01:47.426Z,0.00
2023-02-13T04:02:47.409Z,0.00
2023-02-13T04:03:47.410Z,0.00
2023-02-13T04:04:47.383Z,0.00
2023-02-13T04:05:47.378Z,0.00
2023-02-13T04:06:47.416Z,0.00
2023-02-13T04:07:47.357Z,0.00
2023-02-13T04:08:47.353Z,0.00
2023-02-13T04:09:47.337Z,0.00
2023-02-13T04:10:47.317Z,0.00
2023-02-13T04:11:47.315Z,0.00
2023-02-13T04:12:47.299Z,0.00
2023-02-13T04:13:47.305Z,0.00
2023-02-13T04:14:47.279Z,0.00
2023-02-13T04:15:47.276Z,0.00
2023-02-13T04:16:47.273Z,0.00
2023-02-13T04:17:47.256Z,0.00
2023-02-13T04:18:47.255Z,0.00
2023-02-13T04:19:47.234Z,0.00
2023-02-13T04:20:47.235Z,0.00
2023-02-13T04:21:47.224Z,0.00
2023-02-13T04:22:47.194Z,0.00
2023-02-13T04:23:47.207Z,0.00
2023-02-13T04:24:47.200Z,0.00
2023-02-13T04:25:47.178Z,0.00
2023-02-13T04:26:47.147Z,0.00
2023-02-13T04:27:47.190Z,0.00
2023-02-13T04:28:47.129Z,0.00
2023-02-13T04:29:47.173Z,0.00
2023-02-13T04:30:47.222Z,0.00
2023-02-13T04:31:47.257Z,0.00
2023-02-13T04:32:47.092Z,0.00
2023-02-13T04:33:47.078Z,0.00
2023-02-13T04:34:47.077Z,0.00
2023-02-13T04:35:47.057Z,0.00
2023-02-13T04:36:47.075Z,0.00
2023-02-13T04:37:47.047Z,0.00
2023-02-13T04:38:47.032Z,0.00
2023-02-13T04:39:47.025Z,0.00
2023-02-13T04:40:47.095Z,0.00
2023-02-13T04:41:47.002Z,0.00
2023-02-13T04:42:46.989Z,0.00
2023-02-13T04:43:46.981Z,0.00
2023-02-13T04:44:46.962Z,0.00
2023-02-13T04:45:47.042Z,0.00
2023-02-13T04:46:46.957Z,0.00
2023-02-13T04:47:46.945Z,0.00
2023-02-13T04:48:46.938Z,0.00
2023-02-13T04:49:46.951Z,0.00
2023-02-13T04:50:46.913Z,0.00
2023-02-13T04:51:46.909Z,0.00
2023-02-13T04:52:46.890Z,0.00
2023-02-13T04:53:46.875Z,0.00
2023-02-13T04:54:46.863Z,0.00
2023-02-13T04:55:46.848Z,0.00
2023-02-13T04:56:46.847Z,0.00
2023-02-13T04:57:46.827Z,0.00
2023-02-13T04:58:46.821Z,0.00
2023-02-13T04:59:46.817Z,0.00
2023-02-13T05:00:46.791Z,0.00
2023-02-13T05:01:46.984Z,0.00
2023-02-13T05:02:46.770Z,0.00
2023-02-13T05:03:46.767Z,0.00
2023-02-13T05:04:46.801Z,0.00
2023-02-13T05:05:46.742Z,0.00
2023-02-13T05:06:46.730Z,0.00
2023-02-13T05:07:46.738Z,0.00
2023-02-13T05:08:46.710Z,0.00
2023-02-13T05:09:46.700Z,0.00
2023-02-13T05:10:46.685Z,0.00
2023-02-13T05:11:46.678Z,0.00
2023-02-13T05:12:46.669Z,0.00
2023-02-13T05:13:46.669Z,0.00
2023-02-13T05:14:46.654Z,0.00
2023-02-13T05:15:46.678Z,0.00
2023-02-13T05:16:46.630Z,0.00
2023-02-13T05:17:46.613Z,0.00
2023-02-13T05:18:46.598Z,0.00
2023-02-13T05:19:46.602Z,0.00
2023-02-13T05:20:46.590Z,0.00
2023-02-13T05:21:46.576Z,0.00
2023-02-13T05:22:46.574Z,0.00
2023-02-13T05:23:46.551Z,0.00
2023-02-13T05:24:46.545Z,0.00
2023-02-13T05:25:46.536Z,0.00
2023-02-13T05:26:46.514Z,0.00
2023-02-13T05:27:46.514Z,0.00
2023-02-13T05:28:46.507Z,0.00
2023-02-13T05:29:46.486Z,0.00
2023-02-13T05:30:46.511Z,0.00
2023-02-13T05:31:46.558Z,0.00
2023-02-13T05:32:46.462Z,0.00
2023-02-13T05:33:46.452Z,0.00
2023-02-13T05:34:46.437Z,0.00
2023-02-13T05:35:46.421Z,0.00
2023-02-13T05:36:46.413Z,0.00
2023-02-13T05:37:46.409Z,0.00
2023-02-13T05:38:46.405Z,0.00
2023-02-13T05:39:46.408Z,0.00
2023-02-13T05:40:46.391Z,0.00
2023-02-13T05:41:46.360Z,0.00
2023-02-13T05:42:46.344Z,0.00
2023-02-13T05:43:46.370Z,0.00
2023-02-13T05:44:46.338Z,0.00
2023-02-13T05:45:46.327Z,0.00
2023-02-13T05:46:46.377Z,0.00
2023-02-13T05:47:46.303Z,0.00
2023-02-13T05:48:46.294Z,0.00
2023-02-13T05:49:46.292Z,0.00
2023-02-13T05:50:46.268Z,0.00
2023-02-13T05:51:46.267Z,0.00
2023-02-13T05:52:46.252Z,0.00
2023-02-13T05:53:46.243Z,0.00
2023-02-13T05:54:46.218Z,0.00
2023-02-13T05:55:46.230Z,0.00
2023-02-13T05:56:46.199Z,0.00
2023-02-13T05:57:46.202Z,0.00
2023-02-13T05:58:46.176Z,0.00
2023-02-13T05:59:46.179Z,0.00
2023-02-13T06:00:46.151Z,0.00
2023-02-13T06:01:46.160Z,0.00
2023-02-13T06:02:46.242Z,0.00
2023-02-13T06:03:46.203Z,0.00
2023-02-13T06:04:46.106Z,0.00
2023-02-13T06:05:46.104Z,0.00
2023-02-13T06:06:46.090Z,0.00
2023-02-13T06:07:46.095Z,0.00
2023-02-13T06:08:46.067Z,0.00
2023-02-13T06:09:46.067Z,0.00
2023-02-13T06:10:46.044Z,0.00
2023-02-13T06:11:46.048Z,0.00
2023-02-13T06:12:46.029Z,0.00
2023-02-13T06:13:46.052Z,0.00
2023-02-13T06:14:46.005Z,0.00
2023-02-13T06:15:45.998Z,1.00
2023-02-13T06:16:45.998Z,0.00
2023-02-13T06:17:45.986Z,0.00
2023-02-13T06:18:45.972Z,0.00
2023-02-13T06:19:45.910Z,1.00
2023-02-13T06:20:45.881Z,1.00
2023-02-13T06:21:45.937Z,0.00
2023-02-13T06:22:45.918Z,0.00
2023-02-13T06:23:45.921Z,0.00
2023-02-13T06:24:45.848Z,1.00
2023-02-13T06:25:45.892Z,0.00
2023-02-13T06:26:45.842Z,2.00
2023-02-13T06:27:45.814Z,1.00
2023-02-13T06:28:45.887Z,4.00
2023-02-13T06:29:45.793Z,3.00
2023-02-13T06:30:45.809Z,6.00
2023-02-13T06:31:45.854Z,3.00
2023-02-13T06:32:45.758Z,3.00
2023-02-13T06:33:45.768Z,5.00
2023-02-13T06:34:45.733Z,3.00
2023-02-13T06:35:45.735Z,5.00
2023-02-13T06:36:45.712Z,8.00
2023-02-13T06:37:45.810Z,9.00
2023-02-13T06:38:45.713Z,10.00
2023-02-13T06:39:45.701Z,14.00
2023-02-13T06:40:45.673Z,16.00
2023-02-13T06:41:45.674Z,17.00
2023-02-13T06:42:45.729Z,18.00
2023-02-13T06:43:45.672Z,18.00
2023-02-13T06:44:45.630Z,28.00
2023-02-13T06:45:45.622Z,28.00
2023-02-13T06:46:45.669Z,31.00
2023-02-13T06:47:45.620Z,36.00
2023-02-13T06:48:45.596Z,37.00
2023-02-13T06:49:45.583Z,39.00
2023-02-13T06:50:45.571Z,44.00
2023-02-13T06:51:45.568Z,51.00
2023-02-13T06:52:45.557Z,56.00
2023-02-13T06:53:45.541Z,59.00
2023-02-13T06:54:47.997Z,63.00
2023-02-13T06:55:45.524Z,66.00
2023-02-13T06:56:45.515Z,72.00
2023-02-13T06:57:45.505Z,77.00
2023-02-13T06:58:45.484Z,85.00
2023-02-13T06:59:45.474Z,88.00
2023-02-13T07:00:45.512Z,92.00
2023-02-13T07:01:45.458Z,98.00
2023-02-13T07:02:45.538Z,102.00
2023-02-13T07:03:45.434Z,111.00
2023-02-13T07:04:45.418Z,117.00
2023-02-13T07:05:45.428Z,121.00
2023-02-13T07:06:45.403Z,128.00
2023-02-13T07:07:45.392Z,136.00
2023-02-13T07:08:45.387Z,140.00
2023-02-13T07:09:45.395Z,147.00
2023-02-13T07:10:45.370Z,151.00
2023-02-13T07:11:45.370Z,158.00
2023-02-13T07:12:49.159Z,163.00
2023-02-13T07:13:45.334Z,167.00
2023-02-13T07:14:45.312Z,173.00
2023-02-13T07:15:45.342Z,178.00
2023-02-13T07:16:45.328Z,185.00
2023-02-13T07:17:45.351Z,191.00
2023-02-13T07:18:45.273Z,195.00
2023-02-13T07:19:45.285Z,201.00
2023-02-13T07:20:45.273Z,208.00
2023-02-13T07:21:45.243Z,215.00
2023-02-13T07:22:45.725Z,219.00
2023-02-13T07:23:45.230Z,222.00
2023-02-13T07:24:45.210Z,229.00
2023-02-13T07:25:45.233Z,234.00
2023-02-13T07:26:45.193Z,237.00
2023-02-13T07:27:45.174Z,244.00
2023-02-13T07:28:45.184Z,247.00
2023-02-13T07:29:45.179Z,251.00
2023-02-13T07:30:45.197Z,254.00
2023-02-13T07:31:45.185Z,260.00
2023-02-13T07:32:45.125Z,264.00
2023-02-13T07:33:45.126Z,271.00
2023-02-13T07:35:00.603Z,278.00
2023-02-13T07:35:45.125Z,282.00
2023-02-13T07:36:45.088Z,285.00
2023-02-13T07:37:45.068Z,291.00
2023-02-13T07:38:45.072Z,296.00
2023-02-13T07:39:45.085Z,301.00
2023-02-13T07:40:45.057Z,304.00
2023-02-13T07:41:45.055Z,311.00
2023-02-13T07:42:45.074Z,314.00
2023-02-13T07:43:45.012Z,319.00
2023-02-13T07:44:45.015Z,321.00
2023-02-13T07:45:44.987Z,327.00
2023-02-13T07:46:45.116Z,328.00
2023-02-13T07:47:44.973Z,331.00
2023-02-13T07:48:44.965Z,339.00
2023-02-13T07:49:44.944Z,340.00
2023-02-13T07:50:44.961Z,346.00
2023-02-13T07:51:44.935Z,350.00
2023-02-13T07:52:44.957Z,355.00
2023-02-13T07:53:44.906Z,361.00
2023-02-13T07:54:44.899Z,368.00
2023-02-13T07:55:44.887Z,370.00
2023-02-13T07:56:44.880Z,373.00
2023-02-13T07:57:44.880Z,377.00
2023-02-13T07:58:44.888Z,384.00
2023-02-13T07:59:44.840Z,387.00
2023-02-13T08:00:44.845Z,391.00
2023-02-13T08:01:44.858Z,394.00
2023-02-13T08:02:44.830Z,397.00
2023-02-13T08:03:44.821Z,399.00
2023-02-13T08:04:44.839Z,404.00
2023-02-13T08:05:44.783Z,406.00
2023-02-13T08:06:44.775Z,411.00
2023-02-13T08:07:44.756Z,412.00
2023-02-13T08:08:44.765Z,413.00
2023-02-13T08:09:44.782Z,415.00
2023-02-13T08:10:44.782Z,422.00
2023-02-13T08:11:44.730Z,427.00
2023-02-13T08:12:44.720Z,430.00
2023-02-13T08:13:44.723Z,432.00
2023-02-13T08:14:44.711Z,436.00
2023-02-13T08:15:44.701Z,439.00
2023-02-13T08:16:44.822Z,442.00
2023-02-13T08:17:44.719Z,446.00
2023-02-13T08:18:44.651Z,448.00
2023-02-13T08:19:44.665Z,456.00
2023-02-13T08:20:44.635Z,459.00
2023-02-13T08:21:44.606Z,460.00
2023-02-13T08:22:44.606Z,462.00
2023-02-13T08:23:44.669Z,464.00
2023-02-13T08:24:44.579Z,467.00
2023-02-13T08:25:44.584Z,470.00
2023-02-13T08:26:44.559Z,472.00
2023-02-13T08:27:44.566Z,472.00
2023-02-13T08:28:44.575Z,474.00
2023-02-13T08:29:44.543Z,474.00
2023-02-13T08:30:44.564Z,475.00
2023-02-13T08:31:44.554Z,477.00
2023-02-13T08:32:54.003Z,477.00
2023-02-13T08:33:44.494Z,479.00
2023-02-13T08:34:44.478Z,481.00
2023-02-13T08:35:44.458Z,485.00
2023-02-13T08:36:44.455Z,487.00
2023-02-13T08:37:46.600Z,491.00
2023-02-13T08:38:44.450Z,490.00
2023-02-13T08:39:44.456Z,492.00
2023-02-13T08:40:44.427Z,491.00
2023-02-13T08:41:44.387Z,491.00
2023-02-13T08:42:44.383Z,491.00
2023-02-13T08:43:44.380Z,491.00
2023-02-13T08:44:44.457Z,493.00
2023-02-13T08:45:44.378Z,495.00
2023-02-13T08:46:44.352Z,494.00
2023-02-13T08:47:44.334Z,498.00
2023-02-13T08:48:44.363Z,501.00
2023-02-13T08:49:44.303Z,504.00
2023-02-13T08:50:44.300Z,506.00
2023-02-13T08:51:44.300Z,506.00
2023-02-13T08:52:44.283Z,510.00
2023-02-13T08:53:44.281Z,509.00
2023-02-13T08:54:44.263Z,512.00
2023-02-13T08:55:44.241Z,516.00
2023-02-13T08:56:44.240Z,512.00
2023-02-13T08:57:44.226Z,511.00
2023-02-13T08:58:44.226Z,513.00
2023-02-13T08:59:44.207Z,518.00
2023-02-13T09:00:44.194Z,521.00
2023-02-13T09:01:44.250Z,524.00
2023-02-13T09:02:44.272Z,527.00
2023-02-13T09:03:44.258Z,527.00
2023-02-13T09:04:44.192Z,528.00
2023-02-13T09:05:44.137Z,530.00
2023-02-13T09:06:44.131Z,530.00
2023-02-13T09:07:44.126Z,531.00
2023-02-13T09:08:44.142Z,537.00
2023-02-13T09:09:44.113Z,538.00
2023-02-13T09:10:44.093Z,538.00
2023-02-13T09:11:44.075Z,535.00
2023-02-13T09:12:44.072Z,535.00
2023-02-13T09:13:44.071Z,532.00
2023-02-13T09:14:44.068Z,533.00
2023-02-13T09:15:44.041Z,536.00
2023-02-13T09:16:44.094Z,537.00
2023-02-13T09:17:44.064Z,541.00
2023-02-13T09:18:50.556Z,543.00
2023-02-13T09:19:44.015Z,544.00
2023-02-13T09:20:43.991Z,545.00
2023-02-13T09:21:43.978Z,548.00
2023-02-13T09:22:43.969Z,548.00
2023-02-13T09:23:43.994Z,548.00
2023-02-13T09:24:43.951Z,553.00
2023-02-13T09:25:43.933Z,550.00
2023-02-13T09:26:43.927Z,546.00
2023-02-13T09:27:43.937Z,545.00
2023-02-13T09:28:43.963Z,546.00
2023-02-13T09:29:43.894Z,545.00
2023-02-13T09:30:43.959Z,549.00
2023-02-13T09:31:44.006Z,557.00
2023-02-13T09:32:43.971Z,567.00
2023-02-13T09:33:43.848Z,579.00
2023-02-13T09:34:43.869Z,594.00
2023-02-13T09:35:43.847Z,605.00
2023-02-13T09:36:43.821Z,617.00
2023-02-13T09:37:43.875Z,633.00
2023-02-13T09:38:43.804Z,651.00
2023-02-13T09:39:43.799Z,669.00
2023-02-13T09:40:43.829Z,686.00
2023-02-13T09:41:43.780Z,708.00
2023-02-13T09:42:43.777Z,739.00
2023-02-13T09:43:43.751Z,684.00
2023-02-13T09:44:43.746Z,979.00
2023-02-13T09:45:43.739Z,1345.00
2023-02-13T09:46:43.766Z,1534.00
2023-02-13T09:47:43.696Z,1545.00
2023-02-13T09:48:43.693Z,1348.00
2023-02-13T09:49:43.695Z,1145.00
2023-02-13T09:50:43.692Z,1147.00
2023-02-13T09:51:43.659Z,1415.00
2023-02-13T09:52:43.668Z,1716.00
2023-02-13T09:53:43.667Z,1944.00
2023-02-13T09:54:43.663Z,1946.00
2023-02-13T09:55:43.637Z,1995.00
2023-02-13T09:56:43.611Z,1289.00
2023-02-13T09:57:43.596Z,771.00
2023-02-13T09:58:43.617Z,647.00
2023-02-13T09:59:43.590Z,591.00
2023-02-13T10:00:43.571Z,564.00
2023-02-13T10:01:43.581Z,559.00
2023-02-13T10:02:43.550Z,559.00
2023-02-13T10:03:43.529Z,557.00
2023-02-13T10:04:43.569Z,553.00
2023-02-13T10:05:43.523Z,547.00
2023-02-13T10:06:43.504Z,542.00
2023-02-13T10:07:43.493Z,541.00
2023-02-13T10:08:43.499Z,541.00
2023-02-13T10:09:43.910Z,544.00
2023-02-13T10:10:43.878Z,548.00
2023-02-13T10:11:43.773Z,547.00
2023-02-13T10:12:43.451Z,543.00
2023-02-13T10:13:43.427Z,541.00
2023-02-13T10:14:43.418Z,540.00
2023-02-13T10:15:43.465Z,541.00
2023-02-13T10:16:43.414Z,543.00
2023-02-13T10:17:43.478Z,557.00
2023-02-13T10:18:43.375Z,594.00
2023-02-13T10:19:43.423Z,632.00
2023-02-13T10:20:43.390Z,643.00
2023-02-13T10:21:43.391Z,654.00
2023-02-13T10:22:43.339Z,663.00
2023-02-13T10:23:43.325Z,669.00
2023-02-13T10:24:43.337Z,653.00
2023-02-13T10:25:43.294Z,636.00
2023-02-13T10:26:43.377Z,707.00
2023-02-13T10:27:43.277Z,842.00
2023-02-13T10:28:43.365Z,808.00
2023-02-13T10:29:43.279Z,697.00
2023-02-13T10:30:43.700Z,527.00
2023-02-13T10:31:43.692Z,692.00
2023-02-13T10:32:43.225Z,1804.00
2023-02-13T10:33:43.226Z,1424.00
2023-02-13T10:34:43.281Z,734.00
2023-02-13T10:35:43.204Z,1315.00
2023-02-13T10:36:43.235Z,1496.00
2023-02-13T10:37:43.238Z,1061.00
2023-02-13T10:38:43.164Z,901.00
2023-02-13T10:39:43.223Z,938.00
2023-02-13T10:40:43.469Z,725.00
2023-02-13T10:41:43.158Z,1270.00
2023-02-13T10:42:43.623Z,1195.00
2023-02-13T10:43:44.480Z,1229.00
2023-02-13T10:44:43.741Z,1243.00
2023-02-13T10:45:43.472Z,1113.00
2023-02-13T10:46:44.455Z,1159.00
2023-02-13T10:47:43.221Z,1271.00
2023-02-13T10:48:43.072Z,1115.00
2023-02-13T10:49:44.021Z,784.00
2023-02-13T10:50:43.462Z,576.00
2023-02-13T10:51:43.942Z,558.00
2023-02-13T10:52:44.702Z,544.00
2023-02-13T10:53:43.523Z,520.00
2023-02-13T10:54:43.940Z,513.00
2023-02-13T10:55:44.056Z,508.00
2023-02-13T10:56:43.872Z,505.00
2023-02-13T10:57:43.150Z,503.00
2023-02-13T10:58:43.018Z,500.00
2023-02-13T10:59:47.193Z,498.00
2023-02-13T11:00:45.465Z,499.00
2023-02-13T11:01:43.086Z,494.00
2023-02-13T11:02:42.950Z,491.00
2023-02-13T11:03:43.007Z,488.00
2023-02-13T11:04:43.050Z,487.00
2023-02-13T11:05:43.054Z,486.00
2023-02-13T11:06:42.876Z,486.00
2023-02-13T11:07:42.880Z,484.00
2023-02-13T11:08:42.866Z,483.00
2023-02-13T11:09:42.938Z,483.00
2023-02-13T11:10:42.965Z,483.00
2023-02-13T11:11:42.857Z,483.00
2023-02-13T11:12:42.855Z,483.00
2023-02-13T11:13:42.820Z,480.00
2023-02-13T11:14:42.808Z,479.00
2023-02-13T11:15:42.978Z,478.00
2023-02-13T11:16:43.013Z,476.00
2023-02-13T11:17:42.975Z,475.00
2023-02-13T11:18:42.765Z,475.00
2023-02-13T11:19:42.750Z,473.00
2023-02-13T11:20:42.722Z,474.00
2023-02-13T11:21:42.712Z,473.00
2023-02-13T11:22:42.787Z,472.00
2023-02-13T11:23:42.682Z,469.00
2023-02-13T11:24:42.693Z,468.00
2023-02-13T11:25:42.656Z,468.00
2023-02-13T11:26:42.657Z,468.00
2023-02-13T11:27:42.660Z,468.00
2023-02-13T11:28:42.660Z,465.00
2023-02-13T11:29:42.627Z,463.00
2023-02-13T11:30:42.633Z,461.00
2023-02-13T11:31:42.790Z,460.00
2023-02-13T11:32:42.590Z,456.00
2023-02-13T11:33:42.618Z,453.00
2023-02-13T11:34:42.579Z,453.00
2023-02-13T11:35:42.564Z,451.00
2023-02-13T11:36:42.553Z,450.00
2023-02-13T11:37:42.540Z,450.00
2023-02-13T11:38:42.541Z,447.00
2023-02-13T11:39:42.514Z,447.00
2023-02-13T11:40:42.548Z,444.00
2023-02-13T11:41:42.500Z,443.00
2023-02-13T11:42:42.490Z,444.00
2023-02-13T11:43:42.464Z,442.00
2023-02-13T11:44:42.507Z,441.00
2023-02-13T11:45:42.464Z,440.00
2023-02-13T11:46:42.470Z,439.00
2023-02-13T11:47:42.428Z,438.00
2023-02-13T11:48:42.454Z,437.00
2023-02-13T11:51:24.950Z,432.00
2023-02-13T11:52:25.943Z,432.00
2023-02-13T11:53:25.924Z,431.00
2023-02-13T11:54:25.905Z,431.00
2023-02-13T11:55:25.917Z,430.00
2023-02-13T11:56:25.888Z,430.00
2023-02-13T11:57:25.891Z,428.00
2023-02-13T11:58:25.937Z,426.00
2023-02-13T11:59:25.852Z,425.00
2023-02-13T12:00:27.161Z,423.00
2023-02-13T12:01:25.835Z,423.00
2023-02-13T12:02:25.868Z,422.00
2023-02-13T12:03:25.985Z,421.00
2023-02-13T12:04:25.861Z,420.00
2023-02-13T12:05:25.798Z,421.00
2023-02-13T12:06:25.792Z,419.00
2023-02-13T12:07:25.787Z,419.00
2023-02-13T12:08:25.750Z,416.00
2023-02-13T12:09:25.766Z,415.00
2023-02-13T12:10:25.744Z,412.00
2023-02-13T12:11:25.727Z,412.00
2023-02-13T12:12:25.738Z,412.00
2023-02-13T12:13:25.722Z,411.00
2023-02-13T12:14:25.719Z,412.00
2023-02-13T12:15:25.710Z,411.00
2023-02-13T12:16:25.702Z,411.00
2023-02-13T12:17:31.699Z,411.00
2023-02-13T12:18:25.668Z,411.00
2023-02-13T12:19:25.650Z,411.00
2023-02-13T12:20:25.631Z,408.00
2023-02-13T12:21:25.640Z,407.00
2023-02-13T12:22:25.614Z,406.00
2023-02-13T12:23:25.608Z,407.00
2023-02-13T12:24:25.590Z,406.00
2023-02-13T12:25:25.590Z,404.00
2023-02-13T12:26:25.566Z,403.00
2023-02-13T12:27:25.569Z,403.00
2023-02-13T12:28:25.634Z,400.00
2023-02-13T12:29:25.776Z,398.00
2023-02-13T12:30:25.600Z,398.00
2023-02-13T12:31:25.563Z,397.00
2023-02-13T12:32:25.512Z,394.00
2023-02-13T12:33:25.505Z,395.00
2023-02-13T12:34:25.514Z,392.00
2023-02-13T12:35:25.470Z,391.00
2023-02-13T12:36:25.465Z,387.00
2023-02-13T12:37:25.459Z,388.00
2023-02-13T12:38:25.436Z,386.00
2023-02-13T12:39:25.441Z,384.00
2023-02-13T12:40:25.412Z,382.00
2023-02-13T12:41:25.433Z,381.00
2023-02-13T12:42:25.420Z,379.00
2023-02-13T12:43:25.397Z,380.00
2023-02-13T12:44:25.374Z,379.00
2023-02-13T12:45:25.364Z,377.00
2023-02-13T12:46:25.363Z,378.00
2023-02-13T12:47:25.341Z,377.00
2023-02-13T12:48:25.328Z,376.00
2023-02-13T12:49:25.363Z,376.00
2023-02-13T12:50:25.361Z,376.00
2023-02-13T12:51:25.301Z,379.00
2023-02-13T12:52:25.299Z,380.00
2023-02-13T12:53:25.291Z,378.00
2023-02-13T12:54:25.279Z,377.00
2023-02-13T12:55:25.281Z,378.00